sensor_id;sensor_type;location;lat;lon;timestamp;pressure;altitude;pressure_sealevel;temperature;humidity
72096;BME280;59968;51.084;16.748;2023-10-13T00:02:07;100156.70;;;16.40;80.33
72096;BME280;59968;51.084;16.748;2023-10-13T00:04:36;100158.23;;;16.39;80.28
72096;BME280;59968;51.084;16.748;2023-10-13T00:07:05;100153.85;;;16.39;80.47
72096;BME280;59968;51.084;16.748;2023-10-13T00:09:37;100152.88;;;16.35;80.55
72096;BME280;59968;51.084;16.748;2023-10-13T00:12:07;100157.05;;;16.34;80.71
72096;BME280;59968;51.084;16.748;2023-10-13T00:14:42;100154.12;;;16.35;80.77
72096;BME280;59968;51.084;16.748;2023-10-13T00:17:13;100155.02;;;16.36;80.88
72096;BME280;59968;51.084;16.748;2023-10-13T00:19:49;100160.04;;;16.37;80.75
72096;BME280;59968;51.084;16.748;2023-10-13T00:22:21;100160.51;;;16.40;80.76
72096;BME280;59968;51.084;16.748;2023-10-13T00:24:51;100158.84;;;16.40;80.72
72096;BME280;59968;51.084;16.748;2023-10-13T00:27:26;100158.93;;;16.42;80.71
72096;BME280;59968;51.084;16.748;2023-10-13T00:32:50;100158.77;;;16.44;80.68
72096;BME280;59968;51.084;16.748;2023-10-13T00:35:29;100161.03;;;16.45;80.81
72096;BME280;59968;51.084;16.748;2023-10-13T00:38:04;100166.30;;;16.46;80.67
72096;BME280;59968;51.084;16.748;2023-10-13T00:40:40;100157.45;;;16.46;80.65
72096;BME280;59968;51.084;16.748;2023-10-13T00:43:12;100158.89;;;16.40;80.80
72096;BME280;59968;51.084;16.748;2023-10-13T00:45:52;100160.43;;;16.44;80.77
72096;BME280;59968;51.084;16.748;2023-10-13T00:48:47;100161.64;;;16.44;80.66
72096;BME280;59968;51.084;16.748;2023-10-13T00:51:23;100164.27;;;16.44;80.71
72096;BME280;59968;51.084;16.748;2023-10-13T00:54:05;100166.98;;;16.44;80.62
72096;BME280;59968;51.084;16.748;2023-10-13T00:56:42;100169.31;;;16.45;80.50
72096;BME280;59968;51.084;16.748;2023-10-13T00:59:21;100171.77;;;16.45;80.59
72096;BME280;59968;51.084;16.748;2023-10-13T01:01:53;100172.29;;;16.45;80.57
72096;BME280;59968;51.084;16.748;2023-10-13T01:04:24;100176.36;;;16.42;80.64
72096;BME280;59968;51.084;16.748;2023-10-13T01:06:56;100177.34;;;16.36;80.88
72096;BME280;59968;51.084;16.748;2023-10-13T01:09:25;100176.67;;;16.35;81.03
72096;BME280;59968;51.084;16.748;2023-10-13T01:11:53;100173.42;;;16.34;80.98
72096;BME280;59968;51.084;16.748;2023-10-13T01:14:22;100173.44;;;16.33;81.14
72096;BME280;59968;51.084;16.748;2023-10-13T01:16:55;100171.48;;;16.32;81.16
72096;BME280;59968;51.084;16.748;2023-10-13T01:19:27;100169.20;;;16.32;81.23
72096;BME280;59968;51.084;16.748;2023-10-13T01:21:56;100168.58;;;16.33;81.19
72096;BME280;59968;51.084;16.748;2023-10-13T01:24:32;100166.20;;;16.37;81.10
72096;BME280;59968;51.084;16.748;2023-10-13T01:27:05;100163.11;;;16.37;80.99
72096;BME280;59968;51.084;16.748;2023-10-13T01:29:47;100162.08;;;16.35;80.98
72096;BME280;59968;51.084;16.748;2023-10-13T01:32:18;100161.63;;;16.36;81.01
72096;BME280;59968;51.084;16.748;2023-10-13T01:34:47;100167.85;;;16.35;80.81
72096;BME280;59968;51.084;16.748;2023-10-13T01:37:23;100164.73;;;16.32;80.96
72096;BME280;59968;51.084;16.748;2023-10-13T01:39:52;100166.23;;;16.29;81.11
72096;BME280;59968;51.084;16.748;2023-10-13T01:42:20;100169.92;;;16.25;80.98
72096;BME280;59968;51.084;16.748;2023-10-13T01:44:50;100172.41;;;16.21;81.15
72096;BME280;59968;51.084;16.748;2023-10-13T01:47:19;100173.65;;;16.18;81.06
72096;BME280;59968;51.084;16.748;2023-10-13T01:49:49;100171.23;;;16.15;81.00
72096;BME280;59968;51.084;16.748;2023-10-13T01:52:19;100170.58;;;16.15;81.05
72096;BME280;59968;51.084;16.748;2023-10-13T01:54:47;100169.92;;;16.15;81.08
72096;BME280;59968;51.084;16.748;2023-10-13T01:57:19;100170.06;;;16.14;81.21
72096;BME280;59968;51.084;16.748;2023-10-13T01:59:47;100169.56;;;16.16;81.11
72096;BME280;59968;51.084;16.748;2023-10-13T02:02:18;100175.02;;;16.16;81.16
72096;BME280;59968;51.084;16.748;2023-10-13T02:04:58;100173.51;;;16.18;81.20
72096;BME280;59968;51.084;16.748;2023-10-13T02:07:29;100167.42;;;16.23;80.92
72096;BME280;59968;51.084;16.748;2023-10-13T02:09:59;100164.27;;;16.24;80.82
72096;BME280;59968;51.084;16.748;2023-10-13T02:12:27;100165.68;;;16.28;80.79
72096;BME280;59968;51.084;16.748;2023-10-13T02:15:04;100166.16;;;16.28;80.68
72096;BME280;59968;51.084;16.748;2023-10-13T02:17:33;100170.72;;;16.26;80.86
72096;BME280;59968;51.084;16.748;2023-10-13T02:20:10;100165.84;;;16.25;80.82
72096;BME280;59968;51.084;16.748;2023-10-13T02:22:43;100169.84;;;16.24;80.73
72096;BME280;59968;51.084;16.748;2023-10-13T02:25:20;100169.65;;;16.23;80.60
72096;BME280;59968;51.084;16.748;2023-10-13T02:28:10;100163.52;;;16.25;80.52
72096;BME280;59968;51.084;16.748;2023-10-13T02:30:43;100164.89;;;16.25;80.73
72096;BME280;59968;51.084;16.748;2023-10-13T02:33:17;100171.45;;;16.26;80.55
72096;BME280;59968;51.084;16.748;2023-10-13T02:36:02;100173.40;;;16.26;80.47
72096;BME280;59968;51.084;16.748;2023-10-13T02:38:34;100179.29;;;16.25;80.32
72096;BME280;59968;51.084;16.748;2023-10-13T02:41:19;100179.54;;;16.25;80.22
72096;BME280;59968;51.084;16.748;2023-10-13T02:43:55;100180.14;;;16.23;80.09
72096;BME280;59968;51.084;16.748;2023-10-13T02:46:24;100182.19;;;16.21;80.29
72096;BME280;59968;51.084;16.748;2023-10-13T02:48:58;100182.41;;;16.19;80.41
72096;BME280;59968;51.084;16.748;2023-10-13T02:51:30;100181.39;;;16.18;80.41
72096;BME280;59968;51.084;16.748;2023-10-13T02:54:04;100178.59;;;16.17;80.39
72096;BME280;59968;51.084;16.748;2023-10-13T02:56:41;100184.33;;;16.11;80.80
72096;BME280;59968;51.084;16.748;2023-10-13T02:59:32;100186.79;;;16.11;80.95
72096;BME280;59968;51.084;16.748;2023-10-13T03:02:15;100187.40;;;16.11;81.31
72096;BME280;59968;51.084;16.748;2023-10-13T03:04:56;100185.95;;;16.11;81.18
72096;BME280;59968;51.084;16.748;2023-10-13T03:07:29;100181.19;;;16.11;81.32
72096;BME280;59968;51.084;16.748;2023-10-13T03:09:59;100189.56;;;16.14;81.34
72096;BME280;59968;51.084;16.748;2023-10-13T03:12:39;100189.08;;;16.16;81.32
72096;BME280;59968;51.084;16.748;2023-10-13T03:15:08;100183.58;;;16.15;81.30
72096;BME280;59968;51.084;16.748;2023-10-13T03:17:48;100184.63;;;16.15;81.28
72096;BME280;59968;51.084;16.748;2023-10-13T03:20:17;100179.09;;;16.14;81.31
72096;BME280;59968;51.084;16.748;2023-10-13T03:22:59;100178.85;;;16.12;81.09
72096;BME280;59968;51.084;16.748;2023-10-13T03:25:30;100185.58;;;16.11;81.24
72096;BME280;59968;51.084;16.748;2023-10-13T03:28:05;100183.89;;;16.11;81.06
72096;BME280;59968;51.084;16.748;2023-10-13T03:30:35;100184.27;;;16.09;80.97
72096;BME280;59968;51.084;16.748;2023-10-13T03:33:05;100187.95;;;16.09;81.13
72096;BME280;59968;51.084;16.748;2023-10-13T03:35:41;100189.65;;;16.11;81.21
72096;BME280;59968;51.084;16.748;2023-10-13T03:38:10;100192.80;;;16.11;81.26
72096;BME280;59968;51.084;16.748;2023-10-13T03:40:52;100195.61;;;16.11;81.36
72096;BME280;59968;51.084;16.748;2023-10-13T03:43:25;100197.45;;;16.13;81.48
72096;BME280;59968;51.084;16.748;2023-10-13T03:45:53;100191.66;;;16.11;81.46
72096;BME280;59968;51.084;16.748;2023-10-13T03:48:29;100195.50;;;16.15;81.53
72096;BME280;59968;51.084;16.748;2023-10-13T03:51:00;100191.79;;;16.15;81.39
72096;BME280;59968;51.084;16.748;2023-10-13T03:53:38;100188.42;;;16.14;81.56
72096;BME280;59968;51.084;16.748;2023-10-13T03:56:25;100185.27;;;16.13;81.80
72096;BME280;59968;51.084;16.748;2023-10-13T03:59:00;100183.99;;;16.16;81.91
72096;BME280;59968;51.084;16.748;2023-10-13T04:01:38;100185.61;;;16.20;81.84
72096;BME280;59968;51.084;16.748;2023-10-13T04:04:16;100184.83;;;16.22;81.73
72096;BME280;59968;51.084;16.748;2023-10-13T04:07:03;100186.78;;;16.23;81.84
72096;BME280;59968;51.084;16.748;2023-10-13T04:09:39;100188.48;;;16.25;81.80
72096;BME280;59968;51.084;16.748;2023-10-13T04:12:08;100181.23;;;16.25;81.75
72096;BME280;59968;51.084;16.748;2023-10-13T04:14:43;100180.73;;;16.31;81.48
72096;BME280;59968;51.084;16.748;2023-10-13T04:17:31;100171.04;;;16.26;81.61
72096;BME280;59968;51.084;16.748;2023-10-13T04:20:09;100178.02;;;16.22;82.04
72096;BME280;59968;51.084;16.748;2023-10-13T04:22:42;100175.41;;;16.17;82.28
72096;BME280;59968;51.084;16.748;2023-10-13T04:25:26;100175.30;;;16.19;82.13
72096;BME280;59968;51.084;16.748;2023-10-13T04:28:13;100174.23;;;16.21;82.26
72096;BME280;59968;51.084;16.748;2023-10-13T04:30:49;100172.20;;;16.26;82.06
72096;BME280;59968;51.084;16.748;2023-10-13T04:33:29;100169.38;;;16.14;82.44
72096;BME280;59968;51.084;16.748;2023-10-13T04:36:12;100166.31;;;16.10;82.80
72096;BME280;59968;51.084;16.748;2023-10-13T04:38:48;100167.00;;;16.11;82.82
72096;BME280;59968;51.084;16.748;2023-10-13T04:41:39;100167.04;;;16.10;82.99
72096;BME280;59968;51.084;16.748;2023-10-13T04:44:15;100169.84;;;16.12;83.12
72096;BME280;59968;51.084;16.748;2023-10-13T04:47:02;100169.64;;;16.12;83.20
72096;BME280;59968;51.084;16.748;2023-10-13T04:49:32;100167.79;;;16.11;83.44
72096;BME280;59968;51.084;16.748;2023-10-13T04:52:18;100162.92;;;16.11;83.40
72096;BME280;59968;51.084;16.748;2023-10-13T04:55:06;100161.27;;;16.12;83.57
72096;BME280;59968;51.084;16.748;2023-10-13T04:57:45;100158.14;;;16.13;83.60
72096;BME280;59968;51.084;16.748;2023-10-13T05:00:14;100159.50;;;16.13;83.56
72096;BME280;59968;51.084;16.748;2023-10-13T05:02:47;100158.69;;;16.14;83.62
72096;BME280;59968;51.084;16.748;2023-10-13T05:05:34;100157.27;;;16.14;83.37
72096;BME280;59968;51.084;16.748;2023-10-13T05:08:21;100156.98;;;16.14;83.51
72096;BME280;59968;51.084;16.748;2023-10-13T05:11:11;100155.84;;;16.15;83.35
72096;BME280;59968;51.084;16.748;2023-10-13T05:13:58;100158.92;;;16.14;83.47
72096;BME280;59968;51.084;16.748;2023-10-13T05:16:45;100160.63;;;16.16;83.57
72096;BME280;59968;51.084;16.748;2023-10-13T05:19:33;100156.39;;;16.16;83.66
72096;BME280;59968;51.084;16.748;2023-10-13T05:22:39;100153.54;;;16.18;83.66
72096;BME280;59968;51.084;16.748;2023-10-13T05:25:26;100151.61;;;16.18;83.73
72096;BME280;59968;51.084;16.748;2023-10-13T05:28:14;100150.64;;;16.18;83.74
72096;BME280;59968;51.084;16.748;2023-10-13T05:31:03;100150.52;;;16.20;83.62
72096;BME280;59968;51.084;16.748;2023-10-13T05:33:50;100148.29;;;16.22;83.61
72096;BME280;59968;51.084;16.748;2023-10-13T05:36:37;100144.52;;;16.23;83.61
72096;BME280;59968;51.084;16.748;2023-10-13T05:39:25;100139.55;;;16.27;83.71
72096;BME280;59968;51.084;16.748;2023-10-13T05:42:12;100139.41;;;16.30;83.52
72096;BME280;59968;51.084;16.748;2023-10-13T05:44:59;100135.22;;;16.27;83.63
72096;BME280;59968;51.084;16.748;2023-10-13T05:47:46;100139.02;;;16.31;83.57
72096;BME280;59968;51.084;16.748;2023-10-13T05:50:16;100144.81;;;16.33;83.48
72096;BME280;59968;51.084;16.748;2023-10-13T05:52:49;100149.77;;;16.33;83.42
72096;BME280;59968;51.084;16.748;2023-10-13T05:55:27;100154.34;;;16.33;83.37
72096;BME280;59968;51.084;16.748;2023-10-13T05:58:16;100157.39;;;16.33;83.38
72096;BME280;59968;51.084;16.748;2023-10-13T06:01:03;100162.31;;;16.32;83.58
72096;BME280;59968;51.084;16.748;2023-10-13T06:03:51;100158.52;;;16.30;83.79
72096;BME280;59968;51.084;16.748;2023-10-13T06:06:39;100163.25;;;16.31;83.89
72096;BME280;59968;51.084;16.748;2023-10-13T06:09:27;100156.77;;;16.31;83.97
72096;BME280;59968;51.084;16.748;2023-10-13T06:12:21;100156.73;;;16.32;83.91
72096;BME280;59968;51.084;16.748;2023-10-13T06:15:09;100157.02;;;16.33;83.85
72096;BME280;59968;51.084;16.748;2023-10-13T06:17:57;100156.72;;;16.34;83.72
72096;BME280;59968;51.084;16.748;2023-10-13T06:20:44;100156.14;;;16.37;83.59
72096;BME280;59968;51.084;16.748;2023-10-13T06:23:48;100160.79;;;16.40;83.44
72096;BME280;59968;51.084;16.748;2023-10-13T06:26:35;100163.25;;;16.46;83.57
72096;BME280;59968;51.084;16.748;2023-10-13T06:29:25;100162.45;;;16.51;83.52
72096;BME280;59968;51.084;16.748;2023-10-13T06:31:53;100166.61;;;16.55;83.58
72096;BME280;59968;51.084;16.748;2023-10-13T06:34:25;100163.59;;;16.61;83.63
72096;BME280;59968;51.084;16.748;2023-10-13T06:37:06;100166.20;;;16.70;83.63
72096;BME280;59968;51.084;16.748;2023-10-13T06:39:54;100160.55;;;16.82;83.37
72096;BME280;59968;51.084;16.748;2023-10-13T06:42:28;100158.63;;;16.91;83.28
72096;BME280;59968;51.084;16.748;2023-10-13T06:44:57;100164.44;;;16.99;83.09
72096;BME280;59968;51.084;16.748;2023-10-13T06:47:28;100161.21;;;17.05;83.16
72096;BME280;59968;51.084;16.748;2023-10-13T06:49:56;100161.55;;;17.13;82.98
72096;BME280;59968;51.084;16.748;2023-10-13T06:52:25;100167.69;;;17.21;82.99
72096;BME280;59968;51.084;16.748;2023-10-13T06:54:58;100168.27;;;17.30;82.88
72096;BME280;59968;51.084;16.748;2023-10-13T06:57:32;100171.04;;;17.41;82.87
72096;BME280;59968;51.084;16.748;2023-10-13T07:00:03;100174.48;;;17.52;82.68
72096;BME280;59968;51.084;16.748;2023-10-13T07:02:36;100179.17;;;17.63;82.36
72096;BME280;59968;51.084;16.748;2023-10-13T07:05:06;100190.77;;;17.72;82.05
72096;BME280;59968;51.084;16.748;2023-10-13T07:07:39;100184.89;;;17.82;81.91
72096;BME280;59968;51.084;16.748;2023-10-13T07:10:10;100186.73;;;17.92;81.76
72096;BME280;59968;51.084;16.748;2023-10-13T07:12:40;100184.81;;;18.04;81.38
72096;BME280;59968;51.084;16.748;2023-10-13T07:15:15;100184.96;;;18.15;80.99
72096;BME280;59968;51.084;16.748;2023-10-13T07:17:46;100188.34;;;18.23;80.47
72096;BME280;59968;51.084;16.748;2023-10-13T07:20:17;100186.30;;;18.31;80.04
72096;BME280;59968;51.084;16.748;2023-10-13T07:22:55;100191.34;;;18.43;79.89
72096;BME280;59968;51.084;16.748;2023-10-13T07:25:35;100186.73;;;18.53;79.84
72096;BME280;59968;51.084;16.748;2023-10-13T07:28:07;100187.31;;;18.62;79.60
72096;BME280;59968;51.084;16.748;2023-10-13T07:30:39;100184.72;;;18.72;79.26
72096;BME280;59968;51.084;16.748;2023-10-13T07:33:16;100178.27;;;18.78;78.99
72096;BME280;59968;51.084;16.748;2023-10-13T07:35:59;100185.29;;;18.89;78.53
72096;BME280;59968;51.084;16.748;2023-10-13T07:38:28;100190.46;;;18.97;78.33
72096;BME280;59968;51.084;16.748;2023-10-13T07:40:59;100191.66;;;19.06;77.92
72096;BME280;59968;51.084;16.748;2023-10-13T07:43:36;100185.86;;;19.13;77.77
72096;BME280;59968;51.084;16.748;2023-10-13T07:46:09;100176.75;;;19.23;77.75
72096;BME280;59968;51.084;16.748;2023-10-13T07:48:41;100169.40;;;19.29;77.36
72096;BME280;59968;51.084;16.748;2023-10-13T07:51:14;100162.46;;;19.35;76.65
72096;BME280;59968;51.084;16.748;2023-10-13T07:53:48;100161.14;;;19.43;76.57
72096;BME280;59968;51.084;16.748;2023-10-13T07:57:41;100154.45;;;19.60;76.33
72096;BME280;59968;51.084;16.748;2023-10-13T08:00:24;100160.99;;;19.70;75.49
72096;BME280;59968;51.084;16.748;2023-10-13T08:03:13;100168.61;;;19.82;75.95
72096;BME280;59968;51.084;16.748;2023-10-13T08:05:53;100163.80;;;19.94;75.85
72096;BME280;59968;51.084;16.748;2023-10-13T08:08:41;100158.84;;;20.08;75.21
72096;BME280;59968;51.084;16.748;2023-10-13T08:11:14;100159.20;;;20.17;74.53
72096;BME280;59968;51.084;16.748;2023-10-13T08:13:53;100158.96;;;20.24;73.55
72096;BME280;59968;51.084;16.748;2023-10-13T08:16:30;100160.05;;;20.30;72.89
72096;BME280;59968;51.084;16.748;2023-10-13T08:19:25;100157.17;;;20.37;72.30
72096;BME280;59968;51.084;16.748;2023-10-13T08:22:09;100157.05;;;20.42;72.51
72096;BME280;59968;51.084;16.748;2023-10-13T08:24:48;100161.63;;;20.51;72.65
72096;BME280;59968;51.084;16.748;2023-10-13T08:27:21;100158.19;;;20.59;72.58
72096;BME280;59968;51.084;16.748;2023-10-13T08:30:04;100162.05;;;20.68;71.63
72096;BME280;59968;51.084;16.748;2023-10-13T08:32:52;100159.40;;;20.74;71.43
72096;BME280;59968;51.084;16.748;2023-10-13T08:35:26;100162.58;;;20.80;71.09
72096;BME280;59968;51.084;16.748;2023-10-13T08:38:04;100167.98;;;20.86;70.85
72096;BME280;59968;51.084;16.748;2023-10-13T08:40:57;100167.52;;;20.93;70.81
72096;BME280;59968;51.084;16.748;2023-10-13T08:43:50;100164.54;;;21.02;70.26
72096;BME280;59968;51.084;16.748;2023-10-13T08:46:21;100165.27;;;21.09;69.19
72096;BME280;59968;51.084;16.748;2023-10-13T08:49:19;100170.60;;;21.14;68.73
72096;BME280;59968;51.084;16.748;2023-10-13T08:51:53;100164.91;;;21.20;68.90
72096;BME280;59968;51.084;16.748;2023-10-13T08:54:36;100166.61;;;21.23;68.86
72096;BME280;59968;51.084;16.748;2023-10-13T08:57:14;100168.73;;;21.27;67.70
72096;BME280;59968;51.084;16.748;2023-10-13T08:59:58;100166.67;;;21.31;68.04
72096;BME280;59968;51.084;16.748;2023-10-13T09:02:47;100164.14;;;21.34;67.80
72096;BME280;59968;51.084;16.748;2023-10-13T09:05:43;100163.56;;;21.40;67.76
72096;BME280;59968;51.084;16.748;2023-10-13T09:08:30;100162.15;;;21.41;67.68
72096;BME280;59968;51.084;16.748;2023-10-13T09:11:13;100158.76;;;21.42;66.93
72096;BME280;59968;51.084;16.748;2023-10-13T09:18:26;100145.99;;;21.41;67.12
72096;BME280;59968;51.084;16.748;2023-10-13T09:21:27;100146.06;;;21.41;66.74
72096;BME280;59968;51.084;16.748;2023-10-13T09:24:14;100144.31;;;21.41;66.74
72096;BME280;59968;51.084;16.748;2023-10-13T09:27:02;100145.27;;;21.43;66.77
72096;BME280;59968;51.084;16.748;2023-10-13T09:29:31;100143.63;;;21.48;67.19
72096;BME280;59968;51.084;16.748;2023-10-13T09:32:07;100148.75;;;21.54;66.75
72096;BME280;59968;51.084;16.748;2023-10-13T09:34:40;100150.70;;;21.59;66.97
72096;BME280;59968;51.084;16.748;2023-10-13T09:37:13;100142.14;;;21.66;67.23
72096;BME280;59968;51.084;16.748;2023-10-13T09:39:49;100136.23;;;21.72;67.68
72096;BME280;59968;51.084;16.748;2023-10-13T09:42:21;100134.38;;;21.83;67.80
72096;BME280;59968;51.084;16.748;2023-10-13T09:44:52;100135.11;;;21.95;66.82
72096;BME280;59968;51.084;16.748;2023-10-13T09:47:24;100141.98;;;22.02;66.62
72096;BME280;59968;51.084;16.748;2023-10-13T09:50:00;100139.63;;;22.07;65.35
72096;BME280;59968;51.084;16.748;2023-10-13T09:52:45;100141.64;;;22.09;65.05
72096;BME280;59968;51.084;16.748;2023-10-13T09:55:38;100132.48;;;22.11;64.78
72096;BME280;59968;51.084;16.748;2023-10-13T09:58:14;100126.41;;;22.13;65.13
72096;BME280;59968;51.084;16.748;2023-10-13T10:00:51;100123.02;;;22.16;64.92
72096;BME280;59968;51.084;16.748;2023-10-13T10:03:45;100121.11;;;22.20;65.06
72096;BME280;59968;51.084;16.748;2023-10-13T10:06:22;100122.19;;;22.29;65.04
72096;BME280;59968;51.084;16.748;2023-10-13T10:09:10;100107.39;;;22.40;64.79
72096;BME280;59968;51.084;16.748;2023-10-13T10:17:29;100084.19;;;22.75;64.23
72096;BME280;59968;51.084;16.748;2023-10-13T10:20:02;100086.52;;;22.84;63.53
72096;BME280;59968;51.084;16.748;2023-10-13T10:22:41;100090.19;;;22.89;63.30
72096;BME280;59968;51.084;16.748;2023-10-13T10:25:36;100082.57;;;22.97;62.26
72096;BME280;59968;51.084;16.748;2023-10-13T10:28:07;100071.56;;;23.05;62.51
72096;BME280;59968;51.084;16.748;2023-10-13T10:30:38;100068.32;;;23.14;62.93
72096;BME280;59968;51.084;16.748;2023-10-13T10:33:07;100068.80;;;23.20;61.95
72096;BME280;59968;51.084;16.748;2023-10-13T10:35:57;100065.16;;;23.19;61.40
72096;BME280;59968;51.084;16.748;2023-10-13T10:38:27;100063.40;;;23.20;61.40
72096;BME280;59968;51.084;16.748;2023-10-13T10:40:59;100064.19;;;23.21;61.76
72096;BME280;59968;51.084;16.748;2023-10-13T10:43:38;100070.84;;;23.23;61.62
72096;BME280;59968;51.084;16.748;2023-10-13T10:46:28;100067.02;;;23.30;61.63
72096;BME280;59968;51.084;16.748;2023-10-13T10:49:06;100061.54;;;23.36;61.38
72096;BME280;59968;51.084;16.748;2023-10-13T10:51:44;100051.14;;;23.40;60.49
72096;BME280;59968;51.084;16.748;2023-10-13T10:54:19;100052.14;;;23.40;60.51
72096;BME280;59968;51.084;16.748;2023-10-13T10:56:48;100056.66;;;23.39;60.31
72096;BME280;59968;51.084;16.748;2023-10-13T10:59:21;100052.58;;;23.39;60.26
72096;BME280;59968;51.084;16.748;2023-10-13T11:01:53;100051.48;;;23.36;60.33
72096;BME280;59968;51.084;16.748;2023-10-13T11:04:22;100045.16;;;23.32;59.87
72096;BME280;59968;51.084;16.748;2023-10-13T11:06:53;100044.20;;;23.26;59.96
72096;BME280;59968;51.084;16.748;2023-10-13T11:09:28;100038.36;;;23.21;60.36
72096;BME280;59968;51.084;16.748;2023-10-13T11:14:33;100034.98;;;23.15;61.23
72096;BME280;59968;51.084;16.748;2023-10-13T11:17:02;100024.56;;;23.14;60.90
72096;BME280;59968;51.084;16.748;2023-10-13T11:19:42;100024.45;;;23.08;60.85
72096;BME280;59968;51.084;16.748;2023-10-13T11:22:21;100017.45;;;23.04;61.23
72096;BME280;59968;51.084;16.748;2023-10-13T11:25:10;100011.77;;;23.00;61.39
72096;BME280;59968;51.084;16.748;2023-10-13T11:27:42;100010.11;;;22.96;61.43
72096;BME280;59968;51.084;16.748;2023-10-13T11:30:17;100008.08;;;22.92;62.10
72096;BME280;59968;51.084;16.748;2023-10-13T11:33:04;100008.17;;;22.88;62.15
72096;BME280;59968;51.084;16.748;2023-10-13T11:35:37;100007.52;;;22.84;62.40
72096;BME280;59968;51.084;16.748;2023-10-13T11:38:38;99994.90;;;22.80;62.49
72096;BME280;59968;51.084;16.748;2023-10-13T11:41:09;99993.71;;;22.76;62.37
72096;BME280;59968;51.084;16.748;2023-10-13T11:46:15;99988.61;;;22.75;62.81
72096;BME280;59968;51.084;16.748;2023-10-13T11:48:46;99992.77;;;22.78;62.88
72096;BME280;59968;51.084;16.748;2023-10-13T11:51:15;99992.38;;;22.87;63.15
72096;BME280;59968;51.084;16.748;2023-10-13T11:57:16;99992.64;;;23.03;62.43
72096;BME280;59968;51.084;16.748;2023-10-13T11:59:49;99989.73;;;23.03;62.51
72096;BME280;59968;51.084;16.748;2023-10-13T12:02:47;99988.55;;;23.04;63.01
72096;BME280;59968;51.084;16.748;2023-10-13T12:05:35;99984.96;;;23.05;62.78
72096;BME280;59968;51.084;16.748;2023-10-13T12:08:18;99989.33;;;23.02;62.97
72096;BME280;59968;51.084;16.748;2023-10-13T12:10:51;99986.75;;;23.01;62.83
72096;BME280;59968;51.084;16.748;2023-10-13T12:13:29;99984.13;;;22.98;62.59
72096;BME280;59968;51.084;16.748;2023-10-13T12:15:59;99986.00;;;22.94;63.11
72096;BME280;59968;51.084;16.748;2023-10-13T12:18:37;99980.60;;;22.89;63.14
72096;BME280;59968;51.084;16.748;2023-10-13T12:21:09;99974.30;;;22.84;62.93
72096;BME280;59968;51.084;16.748;2023-10-13T12:28:16;99958.31;;;22.67;63.54
72096;BME280;59968;51.084;16.748;2023-10-13T12:30:50;99954.22;;;22.59;63.58
72096;BME280;59968;51.084;16.748;2023-10-13T12:33:22;99952.30;;;22.53;63.64
72096;BME280;59968;51.084;16.748;2023-10-13T12:35:59;99950.48;;;22.47;63.84
72096;BME280;59968;51.084;16.748;2023-10-13T12:38:59;99951.27;;;22.44;64.46
72096;BME280;59968;51.084;16.748;2023-10-13T12:41:37;99950.45;;;22.39;64.75
72096;BME280;59968;51.084;16.748;2023-10-13T12:44:24;99939.96;;;22.35;65.26
72096;BME280;59968;51.084;16.748;2023-10-13T12:47:14;99934.89;;;22.34;65.24
72096;BME280;59968;51.084;16.748;2023-10-13T12:50:01;99932.93;;;22.34;65.42
72096;BME280;59968;51.084;16.748;2023-10-13T12:52:41;99928.47;;;22.38;65.07
72096;BME280;59968;51.084;16.748;2023-10-13T12:55:14;99919.67;;;22.40;65.49
72096;BME280;59968;51.084;16.748;2023-10-13T12:57:47;99924.59;;;22.41;65.86
72096;BME280;59968;51.084;16.748;2023-10-13T13:00:17;99921.52;;;22.41;65.84
72096;BME280;59968;51.084;16.748;2023-10-13T13:02:51;99917.41;;;22.38;65.67
72096;BME280;59968;51.084;16.748;2023-10-13T13:05:25;99918.73;;;22.31;65.77
72096;BME280;59968;51.084;16.748;2023-10-13T13:07:57;99913.72;;;22.24;65.81
72096;BME280;59968;51.084;16.748;2023-10-13T13:10:26;99907.54;;;22.16;66.38
72096;BME280;59968;51.084;16.748;2023-10-13T13:13:04;99906.81;;;22.12;66.46
72096;BME280;59968;51.084;16.748;2023-10-13T13:15:34;99906.85;;;22.06;66.68
72096;BME280;59968;51.084;16.748;2023-10-13T13:22:30;99907.98;;;21.93;66.88
72096;BME280;59968;51.084;16.748;2023-10-13T13:24:59;99904.89;;;21.91;67.37
72096;BME280;59968;51.084;16.748;2023-10-13T13:27:29;99902.14;;;21.90;67.43
72096;BME280;59968;51.084;16.748;2023-10-13T13:29:57;99898.50;;;21.92;67.64
72096;BME280;59968;51.084;16.748;2023-10-13T13:32:26;99901.23;;;21.93;67.64
72096;BME280;59968;51.084;16.748;2023-10-13T13:34:57;99902.08;;;21.93;67.78
72096;BME280;59968;51.084;16.748;2023-10-13T13:37:33;99896.36;;;21.94;67.77
72096;BME280;59968;51.084;16.748;2023-10-13T13:40:06;99889.42;;;21.97;68.07
72096;BME280;59968;51.084;16.748;2023-10-13T13:42:45;99890.63;;;22.00;67.78
72096;BME280;59968;51.084;16.748;2023-10-13T13:45:15;99883.48;;;22.01;67.62
72096;BME280;59968;51.084;16.748;2023-10-13T13:47:55;99883.20;;;22.04;67.98
72096;BME280;59968;51.084;16.748;2023-10-13T13:50:26;99882.02;;;22.06;67.88
72096;BME280;59968;51.084;16.748;2023-10-13T13:52:57;99881.50;;;22.08;67.89
72096;BME280;59968;51.084;16.748;2023-10-13T13:55:26;99881.11;;;22.09;68.20
72096;BME280;59968;51.084;16.748;2023-10-13T13:58:00;99869.70;;;22.10;68.22
72096;BME280;59968;51.084;16.748;2023-10-13T14:00:28;99866.63;;;22.11;68.08
72096;BME280;59968;51.084;16.748;2023-10-13T14:07:26;99861.70;;;22.06;67.95
72096;BME280;59968;51.084;16.748;2023-10-13T14:10:01;99856.42;;;22.05;68.38
72096;BME280;59968;51.084;16.748;2023-10-13T14:12:35;99852.74;;;22.03;68.31